Arcade, New York
Current Conditions -  °F | °C
As of 10:35 PM on Friday 28 Nov 2014 (Local Time) from KOLE Reporting Station
Overcast Overcast  
Wind Chill: 11°   Ceiling: 12000
Heat Index: 19°   Visibility: 10mi
Dew Point: 16°   Wind: 6mph
Humidity: 86%   Direction: 230°SW
Pressure: 30.1"   Gusts: NA
Location:  42.53°N, 78.42°W
Report Text: KOLE 290335Z AUTO 23005KT 10SM SCT100 OVC120 M07/M09 A3010 RMK AO2
Loading
Personal Weather Stations






























Interactive Weather Map New forecast layout! Learn more

10-Day Weather Forecast

Advertisements
Track Severe Weather on mobile